Overview Statistics Trail Chart Weather Telemetry Raw packets
 

This is the latest recevied weather packets stored in our database for station/object HG8LXL-2. If no packets are shown the sender has not sent any weather packets the latest 10 day(s).

<< 12 13 14 15 16 17 18 >>
Time Temp. Humidity Pressure Rain* Wind** Luminosity Snow
1788349851 28.89° C 23% 1017.5 hPa - - - -
1788349551 28.89° C 23% 1017.5 hPa - - - -
1788349252 28.89° C 22% 1017.5 hPa - - - -
1788348952 29.44° C 22% 1017.5 hPa - - - -
1788348652 30° C 22% 1017.4 hPa - - - -
1788348351 30.56° C 21% 1017.4 hPa - - - -
1788348052 30.56° C 20% 1017.5 hPa - - - -
1788347751 30° C 22% 1017.6 hPa - - - -
1788347451 30.56° C 22% 1017.5 hPa - - - -
1788347151 31.11° C 20% 1017.5 hPa - - - -
1788346851 31.11° C 21% 1017.4 hPa - - - -
1788346551 31.67° C 20% 1017.5 hPa - - - -
1788346251 31.67° C 20% 1017.6 hPa - - - -
1788345951 32.22° C 20% 1017.7 hPa - - - -
1788345651 31.67° C 22% 1017.7 hPa - - - -
1788345351 30.56° C 22% 1017.8 hPa - - - -
1788345051 31.11° C 22% 1017.7 hPa - - - -
1788344751 30.56° C 22% 1017.7 hPa - - - -
1788344455 30° C 22% 1017.9 hPa - - - -
1788344155 29.44° C 23% 1017.9 hPa - - - -
1788343851 28.89° C 24% 1018 hPa - - - -
1788343551 28.89° C 24% 1018 hPa - - - -
1788343251 28.33° C 23% 1018.1 hPa - - - -
1788342951 28.89° C 24% 1018.1 hPa - - - -
1788342651 29.44° C 23% 1018 hPa - - - -

* Rain since midnight (hover to see other rain measurements)
** Current wind speed in m/s (hover to see current wind gust speed)